| time (UTC) | temp F | wind direction | speed MPH | gust MPH | rain 1hr in | rain 24hr in | rain mn in | humidity % | barometer mb |
| 20260906100031 | 61 | 96 | 1.0 | 6.0 | 0.00 | 0.00 | 0.00 | 81 | 1025.5 |
| 20260906094532 | 61 | 54 | 0.0 | 6.0 | 0.00 | 0.00 | 0.00 | 80 | 1025.4 |
| 20260906093026 | 61 | 328 | 1.0 | 8.0 | 0.00 | 0.00 | 0.00 | 80 | 1025.4 |
| 20260906090033 | 60 | 21 | 0.0 | 0.0 | 0.00 | 0.00 | 0.00 | 80 | 1025.5 |
| 20260906084527 | 60 | 64 | 0.0 | 0.0 | 0.00 | 0.00 | 0.00 | 81 | 1025.2 |
| 20260906081533 | 62 | 267 | 3.0 | 7.0 | 0.00 | 0.00 | 0.00 | 80 | 1024.9 |
| 20260906080033 | 61 | 9 | 3.0 | 6.0 | 0.00 | 0.00 | 0.00 | 84 | 1025.1 |
| 20260906073035 | 58 | 234 | 1.0 | 4.0 | 0.00 | 0.00 | 0.00 | 87 | 1025.0 |
| 20260906071529 | 57 | 21 | 1.0 | 6.0 | 0.00 | 0.00 | 0.00 | 94 | 1025.0 |
| 20260906064533 | 56 | 61 | 0.0 | 2.0 | 0.00 | 0.00 | 0.00 | 94 | 1024.9 |
| 20260906063031 | 56 | 85 | 0.0 | 6.0 | 0.00 | 0.00 | 0.00 | 94 | 1024.8 |
| 20260906060030 | 0 | 0.0 | 0.0 | 0.00 | 0.00 | 0.00 | 1024.7 | ||
| 20260906054528 | 0 | 0.0 | 0.0 | 0.00 | 0.00 | 0.00 | 1024.6 | ||
| 20260906051532 | 0 | 0.0 | 0.0 | 0.00 | 0.00 | 0.00 | 1024.4 | ||
| 20260906050033 | 36 | 231 | 0.0 | 0.0 | 0.00 | 0.00 | 0.00 | 91 | 1024.3 |
| 20260906044523 | 36 | 232 | 0.0 | 0.0 | 0.00 | 0.00 | 0.00 | 91 | 1024.3 |
| 20260906041524 | 37 | 230 | 0.0 | 0.0 | 0.00 | 0.00 | 0.00 | 92 | 1024.2 |
| 20260906034525 | 38 | 232 | 0.0 | 0.0 | 0.00 | 0.00 | 0.00 | 91 | 1024.0 |
| 20260906031542 | 39 | 231 | 0.0 | 0.0 | 0.00 | 0.00 | 0.00 | 92 | 1023.9 |
| 20260906030023 | 40 | 232 | 0.0 | 0.0 | 0.00 | 0.00 | 0.00 | 92 | 1023.7 |
| 20260906023025 | 40 | 231 | 0.0 | 0.0 | 0.00 | 0.00 | 0.00 | 92 | 1023.9 |
| 20260906020022 | 41 | 230 | 0.0 | 0.0 | 0.00 | 0.00 | 0.00 | 93 | 1023.5 |
| 20260906014525 | 40 | 230 | 0.0 | 0.0 | 0.00 | 0.00 | 0.00 | 92 | 1023.5 |
| 20260906011523 | 39 | 230 | 0.0 | 0.0 | 0.00 | 0.00 | 0.00 | 91 | 1023.3 |
| 20260906004526 | 40 | 231 | 0.0 | 0.0 | 0.00 | 0.00 | 0.00 | 91 | 1023.2 |
| 20260906001525 | 42 | 229 | 0.0 | 0.0 | 0.00 | 0.00 | 0.00 | 91 | 1023.1 |
| 20260905234527 | 42 | 229 | 0.0 | 0.0 | 0.00 | 0.00 | 0.00 | 92 | 1023.0 |
| 20260905233025 | 42 | 227 | 0.0 | 0.0 | 0.00 | 0.00 | 0.00 | 92 | 1022.9 |
| 20260905230028 | 42 | 229 | 0.0 | 0.0 | 0.00 | 0.00 | 0.00 | 91 | 1022.7 |
| 20260905223024 | 42 | 228 | 0.0 | 0.0 | 0.00 | 0.00 | 0.00 | 90 | 1022.5 |
| 20260905221458 | 42 | 228 | 0.0 | 0.0 | 0.00 | 0.00 | 0.00 | 90 | 1022.4 |
| 20260905214545 | 43 | 226 | 0.0 | 0.0 | 0.00 | 0.00 | 0.00 | 90 | 1022.0 |
| 20260905211543 | 44 | 219 | 0.0 | 0.0 | 0.00 | 0.00 | 0.00 | 89 | 1021.8 |
| 20260905210032 | 45 | 223 | 0.0 | 0.0 | 0.00 | 0.00 | 0.00 | 90 | 1021.6 |
| 20260905203042 | 46 | 221 | 0.0 | 0.0 | 0.00 | 0.00 | 0.00 | 89 | 1021.7 |
| 20260905200055 | 47 | 221 | 0.0 | 0.0 | 0.00 | 0.00 | 0.00 | 87 | 1021.4 |
| 20260905194548 | 48 | 220 | 0.0 | 0.0 | 0.00 | 0.00 | 0.00 | 84 | 1021.3 |
| 20260905193040 | 49 | 221 | 0.0 | 0.0 | 0.00 | 0.00 | 0.00 | 84 | 1021.0 |
| 20260905190051 | 53 | 229 | 0.0 | 0.0 | 0.00 | 0.00 | 0.00 | 83 | 1020.4 |
| 20260905183042 | 57 | 360 | 0.0 | 0.0 | 0.00 | 0.00 | 0.00 | 85 | 1020.0 |
| 20260905180042 | 58 | 204 | 0.0 | 0.0 | 0.00 | 0.00 | 0.00 | 85 | 1019.5 |
| 20260905174540 | 59 | 211 | 0.0 | 0.0 | 0.00 | 0.00 | 0.00 | 85 | 1019.3 |
| 20260905171540 | 61 | 210 | 0.0 | 0.0 | 0.00 | 0.00 | 0.00 | 82 | 1018.9 |
| 20260905170038 | 61 | 213 | 0.0 | 0.0 | 0.00 | 0.00 | 0.00 | 81 | 1018.7 |
| 20260905163041 | 64 | 211 | 0.0 | 0.0 | 0.00 | 0.00 | 0.00 | 79 | 1018.4 |
| 20260905160046 | 68 | 214 | 1.0 | 5.0 | 0.00 | 0.00 | 0.00 | 74 | 1018.1 |
| 20260905153039 | 69 | 108 | 1.0 | 6.0 | 0.00 | 0.00 | 0.00 | 72 | 1017.9 |
| 20260905151536 | 69 | 252 | 2.0 | 7.0 | 0.00 | 0.00 | 0.00 | 75 | 1017.8 |
| 20260905144544 | 71 | 118 | 0.0 | 5.0 | 0.00 | 0.00 | 0.00 | 69 | 1017.9 |
| 20260905141553 | 70 | 101 | 0.0 | 5.0 | 0.00 | 0.00 | 0.00 | 61 | 1017.9 |
| 20260905140038 | 71 | 147 | 0.0 | 4.0 | 0.00 | 0.00 | 0.00 | 59 | 1018.1 |
| 20260905134534 | 70 | 10 | 1.0 | 4.0 | 0.00 | 0.00 | 0.00 | 55 | 1018.2 |
| 20260905131555 | 70 | 88 | 1.0 | 6.0 | 0.00 | 0.00 | 0.00 | 70 | 1018.3 |
| 20260905124542 | 71 | 113 | 1.0 | 3.0 | 0.00 | 0.00 | 0.00 | 55 | 1018.4 |
| 20260905121546 | 72 | 119 | 1.0 | 7.0 | 0.00 | 0.00 | 0.00 | 43 | 1018.6 |
| 20260905114547 | 72 | 256 | 3.0 | 7.0 | 0.00 | 0.00 | 0.00 | 47 | 1018.6 |
| 20260905113041 | 72 | 42 | 3.0 | 7.0 | 0.00 | 0.00 | 0.00 | 45 | 1018.6 |
| 20260905110043 | 71 | 26 | 1.0 | 7.0 | 0.00 | 0.00 | 0.00 | 51 | 1018.6 |
| 20260905103048 | 70 | 9 | 3.0 | 9.0 | 0.00 | 0.00 | 0.00 | 53 | 1018.5 |